createdAt,value
2018-12-05T00:00:41.400Z,99.90
2018-12-05T00:03:13.840Z,99.90
2018-12-05T00:05:45.682Z,99.90
2018-12-05T00:08:18.202Z,99.90
2018-12-05T00:10:51.164Z,99.90
2018-12-05T00:20:50.178Z,99.90
2018-12-05T00:23:22.128Z,99.90
2018-12-05T00:25:54.642Z,99.90
2018-12-05T00:28:26.898Z,99.90
2018-12-05T00:30:59.149Z,99.90
2018-12-05T00:33:31.166Z,99.90
2018-12-05T00:36:03.522Z,99.90
2018-12-05T00:38:36.764Z,99.90
2018-12-05T00:41:09.411Z,99.90
2018-12-05T00:43:43.991Z,99.90
2018-12-05T00:46:17.280Z,99.90
2018-12-05T00:48:49.965Z,99.90
2018-12-05T00:51:21.887Z,99.90
2018-12-05T00:53:54.159Z,99.90
2018-12-05T00:56:26.204Z,99.90
2018-12-05T00:58:58.321Z,99.90
2018-12-05T01:01:30.588Z,99.90
2018-12-05T01:04:02.962Z,99.90
2018-12-05T01:06:36.121Z,99.90
2018-12-05T01:09:12.724Z,99.90
2018-12-05T01:11:45.592Z,99.90
2018-12-05T01:14:18.807Z,99.90
2018-12-05T01:16:51.402Z,99.90
2018-12-05T01:19:24.377Z,99.90
2018-12-05T01:29:26.993Z,99.90
2018-12-05T01:31:59.887Z,99.90
2018-12-05T01:34:32.533Z,99.90
2018-12-05T01:37:03.578Z,99.90
2018-12-05T01:39:36.281Z,99.90
2018-12-05T01:42:08.680Z,99.90
2018-12-05T01:44:40.962Z,99.90
2018-12-05T01:47:13.168Z,99.90
2018-12-05T01:49:45.244Z,99.90
2018-12-05T01:52:17.564Z,99.90
2018-12-05T01:54:49.805Z,99.90
2018-12-05T01:57:22.083Z,99.90
2018-12-05T01:59:54.124Z,99.90
2018-12-05T02:02:26.682Z,99.90
2018-12-05T02:04:58.652Z,99.90
2018-12-05T02:07:30.968Z,99.90
2018-12-05T02:10:03.040Z,99.90
2018-12-05T02:12:36.843Z,99.90
2018-12-05T02:15:09.355Z,99.90
2018-12-05T02:17:42.572Z,99.90
2018-12-05T02:20:14.520Z,99.90
2018-12-05T02:22:46.693Z,99.90
2018-12-05T02:25:18.883Z,99.90
2018-12-05T02:27:51.967Z,99.90
2018-12-05T02:30:24.367Z,99.90
2018-12-05T02:32:57.240Z,99.90
2018-12-05T02:35:29.258Z,99.90
2018-12-05T02:38:01.698Z,99.90
2018-12-05T02:40:33.608Z,99.90
2018-12-05T02:43:05.684Z,99.90
2018-12-05T02:45:37.543Z,99.90
2018-12-05T02:48:10.040Z,99.90
2018-12-05T02:50:42.762Z,99.90
2018-12-05T02:53:15.081Z,99.90
2018-12-05T02:55:46.966Z,99.90
2018-12-05T02:58:19.324Z,99.90
2018-12-05T03:00:51.402Z,99.90
2018-12-05T03:03:23.808Z,99.90
2018-12-05T03:05:56.166Z,99.90
2018-12-05T03:08:28.229Z,99.90
2018-12-05T03:11:00.729Z,99.90
2018-12-05T03:13:32.748Z,99.90
2018-12-05T03:16:04.690Z,99.90
2018-12-05T03:18:37.246Z,99.90
2018-12-05T03:21:10.407Z,99.90
2018-12-05T03:23:43.496Z,99.90
2018-12-05T03:26:15.387Z,99.90
2018-12-05T03:28:47.564Z,99.90
2018-12-05T03:31:19.843Z,99.90
2018-12-05T03:33:52.423Z,99.90
2018-12-05T03:36:25.215Z,99.90
2018-12-05T03:38:57.336Z,99.90
2018-12-05T03:41:30.133Z,99.90
2018-12-05T03:44:03.042Z,99.90
2018-12-05T03:46:37.351Z,99.90
2018-12-05T03:49:10.079Z,99.90
2018-12-05T03:51:42.133Z,99.90
2018-12-05T03:54:13.854Z,99.90
2018-12-05T03:56:45.839Z,99.90
2018-12-05T03:59:18.163Z,99.90
2018-12-05T04:01:50.148Z,99.90
2018-12-05T04:04:22.250Z,99.90
2018-12-05T04:06:54.228Z,99.90
2018-12-05T04:09:26.611Z,99.90
2018-12-05T04:11:57.362Z,99.90
2018-12-05T04:14:31.562Z,99.90
2018-12-05T04:17:04.165Z,99.90
2018-12-05T04:19:34.443Z,99.90
2018-12-05T04:22:07.036Z,99.90
2018-12-05T04:24:39.928Z,99.90
2018-12-05T04:27:12.109Z,99.90
2018-12-05T04:29:44.308Z,99.90
2018-12-05T04:32:16.722Z,99.90
2018-12-05T04:34:49.588Z,99.90
2018-12-05T04:37:21.649Z,99.90
2018-12-05T04:39:53.645Z,99.90
2018-12-05T04:42:25.642Z,99.90
2018-12-05T04:44:58.733Z,99.90
2018-12-05T04:47:31.000Z,99.90
2018-12-05T04:50:03.948Z,99.90
2018-12-05T04:52:36.378Z,99.90
2018-12-05T04:55:08.723Z,99.90
2018-12-05T04:57:40.762Z,99.90
2018-12-05T05:00:13.149Z,99.90
2018-12-05T05:02:45.197Z,99.90
2018-12-05T05:05:17.442Z,99.90
2018-12-05T05:07:49.478Z,99.90
2018-12-05T05:10:22.210Z,99.90
2018-12-05T05:12:55.134Z,99.90
2018-12-05T05:15:27.252Z,99.90
2018-12-05T05:17:59.444Z,99.90
2018-12-05T05:20:31.833Z,99.90
2018-12-05T05:23:03.808Z,99.90
2018-12-05T05:25:35.765Z,99.90
2018-12-05T05:28:08.375Z,99.90
2018-12-05T05:33:12.289Z,99.90
2018-12-05T05:35:44.264Z,99.90
2018-12-05T05:38:18.004Z,99.90
2018-12-05T05:40:54.293Z,99.90
2018-12-05T05:43:26.442Z,99.90
2018-12-05T05:45:58.654Z,99.90
2018-12-05T05:48:31.362Z,99.90
2018-12-05T05:51:03.591Z,99.90
2018-12-05T05:53:37.895Z,99.90
2018-12-05T05:56:11.542Z,99.90
2018-12-05T05:58:43.904Z,99.90
2018-12-05T06:01:16.070Z,99.90
2018-12-05T06:03:48.219Z,99.90
2018-12-05T06:06:20.828Z,99.90
2018-12-05T06:08:53.331Z,99.90
2018-12-05T06:11:27.250Z,99.90
2018-12-05T06:13:57.685Z,99.90
2018-12-05T06:16:30.269Z,99.90
2018-12-05T06:19:03.116Z,99.90
2018-12-05T06:21:35.407Z,99.90
2018-12-05T06:24:07.714Z,99.90
2018-12-05T06:26:40.690Z,99.90
2018-12-05T06:29:13.447Z,99.90
2018-12-05T06:31:43.650Z,99.90
2018-12-05T06:36:44.555Z,99.90
2018-12-05T06:39:16.695Z,99.90
2018-12-05T06:41:49.335Z,99.90
2018-12-05T06:44:21.329Z,99.90
2018-12-05T06:46:55.819Z,99.90
2018-12-05T06:49:28.877Z,99.90
2018-12-05T06:52:00.923Z,99.90
2018-12-05T06:54:32.849Z,99.90
2018-12-05T06:57:07.730Z,99.90
2018-12-05T06:59:41.045Z,99.90
2018-12-05T07:02:14.336Z,99.90
2018-12-05T07:04:46.322Z,99.90
2018-12-05T07:07:18.324Z,99.90
2018-12-05T07:09:50.201Z,99.90
2018-12-05T07:12:22.422Z,99.90
2018-12-05T07:14:56.579Z,99.90
2018-12-05T07:17:28.579Z,99.90
2018-12-05T07:20:00.586Z,99.90
2018-12-05T07:22:32.907Z,99.90
2018-12-05T07:25:05.614Z,99.90
2018-12-05T07:27:37.571Z,99.90
2018-12-05T07:30:09.912Z,99.90
2018-12-05T07:32:42.971Z,99.90
2018-12-05T07:35:21.295Z,99.90
2018-12-05T07:37:53.401Z,99.90
2018-12-05T07:40:25.400Z,99.90
2018-12-05T07:42:57.699Z,99.90
2018-12-05T07:45:29.872Z,99.90
2018-12-05T07:48:02.161Z,99.90
2018-12-05T07:50:34.107Z,99.90
2018-12-05T07:53:06.273Z,99.90
2018-12-05T07:55:38.539Z,99.90
2018-12-05T07:58:08.871Z,99.90
2018-12-05T08:00:41.176Z,99.90
2018-12-05T08:03:13.496Z,99.90
2018-12-05T08:05:46.171Z,99.90
2018-12-05T08:08:18.996Z,99.90
2018-12-05T08:10:51.152Z,99.90
2018-12-05T08:13:23.638Z,99.90
2018-12-05T08:15:55.650Z,99.90
2018-12-05T08:18:25.685Z,99.90
2018-12-05T08:20:58.093Z,99.90
2018-12-05T08:23:30.263Z,99.90
2018-12-05T08:26:02.974Z,99.90
2018-12-05T08:28:35.128Z,99.90
2018-12-05T08:31:09.482Z,99.90
2018-12-05T08:33:42.217Z,99.90
2018-12-05T08:36:16.564Z,99.90
2018-12-05T08:38:49.447Z,99.90
2018-12-05T08:41:23.729Z,99.90
2018-12-05T08:43:56.731Z,99.90
2018-12-05T08:46:31.117Z,99.90
2018-12-05T08:49:04.030Z,99.90
2018-12-05T08:51:35.890Z,99.90
2018-12-05T08:54:08.273Z,99.90
2018-12-05T08:56:41.271Z,99.90
2018-12-05T08:59:14.306Z,99.90
2018-12-05T09:01:46.234Z,99.90
2018-12-05T09:04:18.640Z,99.90
2018-12-05T09:06:51.470Z,99.90
2018-12-05T09:09:23.581Z,99.90
2018-12-05T09:11:56.098Z,99.90
2018-12-05T09:14:30.696Z,99.90
2018-12-05T09:17:03.217Z,99.90
2018-12-05T09:19:33.439Z,99.90
2018-12-05T09:22:05.594Z,99.90
2018-12-05T09:24:38.565Z,99.90
2018-12-05T09:27:12.928Z,99.90
2018-12-05T09:29:45.136Z,99.90
2018-12-05T09:32:17.996Z,99.90
2018-12-05T09:34:50.071Z,99.90
2018-12-05T09:37:22.121Z,99.90
2018-12-05T09:42:23.649Z,99.90
2018-12-05T09:44:56.226Z,99.90
2018-12-05T09:47:28.690Z,99.90
2018-12-05T09:50:01.044Z,99.90
2018-12-05T09:52:33.925Z,99.90
2018-12-05T09:55:06.863Z,99.90
2018-12-05T09:57:39.587Z,99.90
2018-12-05T10:00:14.557Z,99.90
2018-12-05T10:02:48.817Z,99.90
2018-12-05T10:05:21.531Z,99.90
2018-12-05T10:07:54.570Z,99.90
2018-12-05T10:10:25.095Z,99.90
2018-12-05T10:12:57.257Z,99.90
2018-12-05T10:15:29.576Z,99.90
2018-12-05T10:18:02.497Z,99.90
2018-12-05T10:20:35.260Z,99.90
2018-12-05T10:23:08.069Z,99.90
2018-12-05T10:25:40.595Z,99.90
2018-12-05T10:28:12.856Z,99.90
2018-12-05T10:30:45.157Z,99.90
2018-12-05T10:33:18.483Z,99.90
2018-12-05T10:35:49.956Z,99.90
2018-12-05T10:38:23.835Z,99.90
2018-12-05T10:40:57.643Z,99.90
2018-12-05T10:48:28.510Z,99.90
2018-12-05T10:51:02.901Z,99.90
2018-12-05T10:53:34.038Z,99.90
2018-12-05T10:56:07.078Z,99.90
2018-12-05T10:58:39.996Z,99.90
2018-12-05T11:01:17.435Z,99.90
2018-12-05T11:03:48.346Z,99.90
2018-12-05T11:06:25.564Z,99.90
2018-12-05T11:09:04.417Z,99.90
2018-12-05T11:11:42.812Z,99.90
2018-12-05T11:14:18.481Z,99.90
2018-12-05T11:17:57.639Z,99.90
2018-12-05T11:20:37.433Z,99.90
2018-12-05T11:23:16.361Z,99.90
2018-12-05T11:25:49.307Z,99.90
2018-12-05T11:28:21.424Z,99.90
2018-12-05T11:30:53.648Z,99.90
2018-12-05T11:33:26.704Z,99.90
2018-12-05T11:35:57.714Z,99.90
2018-12-05T11:38:30.612Z,99.90
2018-12-05T11:41:02.814Z,99.90
2018-12-05T11:43:34.943Z,99.90
2018-12-05T11:46:07.072Z,99.90
2018-12-05T11:48:39.526Z,99.90
2018-12-05T11:51:10.494Z,99.90
2018-12-05T11:53:43.213Z,99.90
2018-12-05T11:56:15.707Z,99.90
2018-12-05T11:58:50.101Z,99.90
2018-12-05T12:01:22.732Z,99.90
2018-12-05T12:03:55.078Z,99.90
2018-12-05T12:06:27.283Z,99.90
2018-12-05T12:08:58.303Z,99.90
2018-12-05T12:11:31.846Z,99.90
2018-12-05T12:14:04.677Z,99.90
2018-12-05T12:16:37.608Z,99.90
2018-12-05T12:19:12.880Z,99.90
2018-12-05T12:21:45.544Z,99.90
2018-12-05T12:24:18.704Z,99.90
2018-12-05T12:26:51.038Z,99.90
2018-12-05T12:29:24.265Z,99.90
2018-12-05T12:31:57.591Z,99.00
2018-12-05T12:34:28.424Z,96.10
2018-12-05T12:37:02.849Z,95.00
2018-12-05T12:39:35.897Z,93.90
2018-12-05T12:42:08.729Z,93.10
2018-12-05T12:44:43.096Z,92.50
2018-12-05T12:47:15.333Z,92.30
2018-12-05T12:49:48.248Z,91.50
2018-12-05T12:52:21.166Z,91.50
2018-12-05T12:54:53.159Z,92.10
2018-12-05T12:57:27.767Z,93.90
2018-12-05T13:00:00.312Z,94.90
2018-12-05T13:02:32.697Z,95.80
2018-12-05T13:05:07.032Z,96.90
2018-12-05T13:07:39.818Z,97.20
2018-12-05T13:10:12.034Z,97.90
2018-12-05T13:12:44.960Z,98.00
2018-12-05T13:15:17.209Z,98.30
2018-12-05T13:17:48.082Z,98.50
2018-12-05T13:20:22.704Z,98.90
2018-12-05T13:22:55.804Z,99.20
2018-12-05T13:25:31.172Z,99.50
2018-12-05T13:28:01.999Z,99.60
2018-12-05T13:30:34.307Z,99.60
2018-12-05T13:33:07.057Z,99.80
2018-12-05T13:35:41.775Z,99.90
2018-12-05T13:38:14.528Z,99.90
2018-12-05T13:40:47.404Z,99.90
2018-12-05T13:43:20.303Z,99.90
2018-12-05T13:45:52.126Z,99.90
2018-12-05T13:48:22.400Z,99.90
2018-12-05T13:50:54.840Z,99.90
2018-12-05T13:53:27.043Z,99.90
2018-12-05T13:55:59.389Z,99.90
2018-12-05T13:58:31.764Z,99.90
2018-12-05T14:01:04.049Z,99.90
2018-12-05T14:03:36.102Z,99.90
2018-12-05T14:06:08.444Z,99.90
2018-12-05T14:08:39.236Z,99.90
2018-12-05T14:11:13.657Z,99.90
2018-12-05T14:13:46.117Z,99.90
2018-12-05T14:16:19.647Z,99.90
2018-12-05T14:18:51.928Z,99.90
2018-12-05T14:21:25.206Z,99.90
2018-12-05T14:23:57.964Z,99.90
2018-12-05T14:26:30.150Z,99.90
2018-12-05T14:29:02.186Z,99.90
2018-12-05T14:31:34.510Z,99.90
2018-12-05T14:34:07.546Z,99.90
2018-12-05T14:36:40.623Z,99.90
2018-12-05T14:39:13.629Z,99.90
2018-12-05T14:41:47.418Z,99.90
2018-12-05T14:44:19.491Z,99.90
2018-12-05T14:46:49.656Z,99.90
2018-12-05T14:49:21.468Z,99.90
2018-12-05T14:51:53.971Z,99.90
2018-12-05T14:54:26.760Z,99.90
2018-12-05T14:56:59.434Z,99.90
2018-12-05T14:59:31.470Z,99.90
2018-12-05T15:02:03.430Z,99.90
2018-12-05T15:04:35.687Z,99.90
2018-12-05T15:07:07.811Z,99.90
2018-12-05T15:09:39.907Z,99.90
2018-12-05T15:12:12.395Z,99.90
2018-12-05T15:14:45.542Z,99.90
2018-12-05T15:17:18.163Z,99.90
2018-12-05T15:19:51.618Z,99.90
2018-12-05T15:22:24.944Z,99.90
2018-12-05T15:24:55.264Z,99.90
2018-12-05T15:27:27.358Z,99.90
2018-12-05T15:29:59.650Z,99.90
2018-12-05T15:32:32.734Z,99.90
2018-12-05T15:35:05.286Z,99.90
2018-12-05T15:37:37.453Z,99.90
2018-12-05T15:40:08.847Z,99.90
2018-12-05T15:42:41.605Z,99.90
2018-12-05T15:45:21.387Z,99.90
2018-12-05T15:47:46.897Z,99.90
2018-12-05T15:50:19.748Z,99.90
2018-12-05T15:52:52.700Z,99.90
2018-12-05T15:55:24.813Z,99.90
2018-12-05T15:57:58.052Z,99.90
2018-12-05T16:00:36.834Z,99.90
2018-12-05T16:03:10.480Z,99.90
2018-12-05T16:05:45.248Z,99.90
2018-12-05T16:08:20.110Z,99.90
2018-12-05T16:10:53.838Z,99.90
2018-12-05T16:13:26.869Z,99.90
2018-12-05T16:15:59.327Z,99.90
2018-12-05T16:18:32.306Z,99.90
2018-12-05T16:21:05.314Z,99.90
2018-12-05T16:26:49.129Z,99.90
2018-12-05T16:29:45.161Z,99.90
2018-12-05T16:32:19.292Z,99.90
2018-12-05T16:34:54.407Z,99.90
2018-12-05T16:37:31.725Z,99.90
2018-12-05T16:40:06.138Z,99.90
2018-12-05T16:42:49.867Z,99.90
2018-12-05T16:45:27.760Z,99.90
2018-12-05T16:48:01.294Z,99.90
2018-12-05T16:50:34.021Z,99.90
2018-12-05T16:53:19.815Z,99.90
2018-12-05T16:55:54.435Z,99.90
2018-12-05T16:58:28.470Z,99.90
2018-12-05T17:01:20.200Z,99.90
2018-12-05T17:03:53.511Z,99.90
2018-12-05T17:06:27.698Z,99.90
2018-12-05T17:09:07.820Z,99.90
2018-12-05T17:11:42.541Z,99.90
2018-12-05T17:14:19.282Z,99.90
2018-12-05T17:16:51.913Z,99.90
2018-12-05T17:19:26.338Z,99.90
2018-12-05T17:21:59.223Z,99.90
2018-12-05T17:24:32.678Z,99.90
2018-12-05T17:27:05.297Z,99.90
2018-12-05T17:29:38.175Z,99.90
2018-12-05T17:32:10.428Z,99.90
2018-12-05T17:34:42.721Z,99.90
2018-12-05T17:37:16.201Z,99.90
2018-12-05T17:39:46.923Z,99.90
2018-12-05T17:42:21.957Z,99.90
2018-12-05T17:44:55.517Z,99.90
2018-12-05T17:47:28.792Z,99.90
2018-12-05T17:49:59.560Z,99.90
2018-12-05T17:52:32.438Z,99.90
2018-12-05T17:55:07.506Z,99.90
2018-12-05T17:57:40.157Z,99.90
2018-12-05T18:00:12.586Z,99.90
2018-12-05T18:02:45.601Z,99.90
2018-12-05T18:05:17.956Z,99.90
2018-12-05T18:07:49.675Z,99.90
2018-12-05T18:10:22.122Z,99.90
2018-12-05T18:12:54.462Z,99.90
2018-12-05T18:15:26.884Z,99.90
2018-12-05T18:17:57.896Z,99.90
2018-12-05T18:20:30.420Z,99.90
2018-12-05T18:23:03.465Z,99.90
2018-12-05T18:25:36.671Z,99.90
2018-12-05T18:28:09.208Z,99.90
2018-12-05T18:30:39.466Z,99.90
2018-12-05T18:33:12.273Z,99.90
2018-12-05T18:35:44.389Z,99.90
2018-12-05T18:38:17.893Z,99.90
2018-12-05T18:40:50.747Z,99.90
2018-12-05T18:43:23.548Z,99.90
2018-12-05T18:45:56.886Z,99.90
2018-12-05T18:48:27.626Z,99.90
2018-12-05T18:51:01.353Z,99.90
2018-12-05T18:53:36.424Z,99.90
2018-12-05T18:56:09.058Z,99.90
2018-12-05T18:58:41.739Z,99.90
2018-12-05T19:01:14.717Z,99.90
2018-12-05T19:03:47.864Z,99.90
2018-12-05T19:06:20.229Z,99.90
2018-12-05T19:08:52.794Z,99.90
2018-12-05T19:11:25.659Z,99.90
2018-12-05T19:14:03.933Z,99.90
2018-12-05T19:16:37.125Z,99.90
2018-12-05T19:19:10.384Z,99.90
2018-12-05T19:21:43.474Z,99.90
2018-12-05T19:24:16.460Z,99.90
2018-12-05T19:26:50.197Z,99.90
2018-12-05T19:29:22.691Z,99.90
2018-12-05T19:31:53.765Z,99.90
2018-12-05T19:34:24.722Z,99.90
2018-12-05T19:36:57.851Z,99.90
2018-12-05T19:39:30.188Z,99.90
2018-12-05T19:42:03.906Z,99.90
2018-12-05T19:44:36.456Z,99.90
2018-12-05T19:47:09.120Z,99.90
2018-12-05T19:49:41.506Z,99.90
2018-12-05T19:52:14.469Z,99.90
2018-12-05T19:54:46.919Z,99.90
2018-12-05T20:02:16.181Z,99.90
2018-12-05T20:04:48.887Z,99.90
2018-12-05T20:07:22.479Z,99.90
2018-12-05T20:09:55.340Z,99.90
2018-12-05T20:12:28.592Z,99.90
2018-12-05T20:15:01.752Z,99.90
2018-12-05T20:17:34.659Z,99.90
2018-12-05T20:20:07.941Z,99.90
2018-12-05T20:22:40.714Z,99.90
2018-12-05T20:25:13.642Z,99.90
2018-12-05T20:27:46.965Z,99.90
2018-12-05T20:30:19.989Z,99.90
2018-12-05T20:32:54.939Z,99.90
2018-12-05T20:35:27.679Z,99.90
2018-12-05T20:37:58.599Z,99.90
2018-12-05T20:40:31.085Z,99.90
2018-12-05T20:43:04.173Z,99.90
2018-12-05T20:45:37.284Z,99.90
2018-12-05T20:48:10.398Z,99.90
2018-12-05T20:50:43.755Z,99.90
2018-12-05T20:53:16.760Z,99.90
2018-12-05T20:55:49.069Z,99.90
2018-12-05T20:58:22.224Z,99.90
2018-12-05T21:05:55.205Z,99.90
2018-12-05T21:08:28.686Z,99.90
2018-12-05T21:11:01.474Z,99.90
2018-12-05T21:13:34.305Z,99.90
2018-12-05T21:16:07.366Z,99.90
2018-12-05T21:18:39.912Z,99.90
2018-12-05T21:21:12.640Z,99.90
2018-12-05T21:23:46.112Z,99.90
2018-12-05T21:26:19.241Z,99.90
2018-12-05T21:28:52.261Z,99.90
2018-12-05T21:31:25.427Z,99.90
2018-12-05T21:33:58.641Z,99.90
2018-12-05T21:36:31.904Z,99.90
2018-12-05T21:39:08.251Z,99.90
2018-12-05T21:41:39.278Z,99.90
2018-12-05T21:44:12.301Z,99.90
2018-12-05T21:46:44.921Z,99.90
2018-12-05T21:49:17.665Z,99.90
2018-12-05T21:51:47.514Z,99.90
2018-12-05T21:54:19.446Z,99.90
2018-12-05T21:56:51.587Z,99.90
2018-12-05T21:59:23.711Z,99.90
2018-12-05T22:01:56.022Z,99.90
2018-12-05T22:04:28.214Z,99.90
2018-12-05T22:07:00.849Z,99.90
2018-12-05T22:09:33.086Z,99.90
2018-12-05T22:12:05.293Z,99.90
2018-12-05T22:14:38.572Z,99.90
2018-12-05T22:17:10.617Z,99.90
2018-12-05T22:19:42.565Z,99.90
2018-12-05T22:22:17.110Z,99.90
2018-12-05T22:24:49.778Z,99.90
2018-12-05T22:27:21.761Z,99.90
2018-12-05T22:29:53.844Z,99.90
2018-12-05T22:32:25.745Z,99.90
2018-12-05T22:34:57.843Z,99.90
2018-12-05T22:37:30.054Z,99.90
2018-12-05T22:40:01.909Z,99.90
2018-12-05T22:42:36.382Z,99.90
2018-12-05T22:45:08.252Z,99.90
2018-12-05T22:47:40.602Z,99.90
2018-12-05T22:50:12.791Z,99.90
2018-12-05T22:52:44.959Z,99.90
2018-12-05T22:55:16.988Z,99.90
2018-12-05T22:57:48.957Z,99.90
2018-12-05T23:00:25.629Z,99.90
2018-12-05T23:02:58.345Z,99.90
2018-12-05T23:05:30.610Z,99.90
2018-12-05T23:08:02.661Z,99.90
2018-12-05T23:10:34.842Z,99.90
2018-12-05T23:13:09.293Z,99.90
2018-12-05T23:15:41.627Z,99.90
2018-12-05T23:18:13.753Z,99.90
2018-12-05T23:20:46.954Z,99.90
2018-12-05T23:23:19.509Z,99.90
2018-12-05T23:25:51.714Z,99.90
2018-12-05T23:28:23.975Z,99.90
2018-12-05T23:30:56.221Z,99.90
2018-12-05T23:33:28.138Z,99.90
2018-12-05T23:36:00.198Z,99.90
2018-12-05T23:38:30.521Z,99.90
2018-12-05T23:41:02.554Z,99.90
2018-12-05T23:43:34.867Z,99.90
2018-12-05T23:46:06.862Z,99.90
2018-12-05T23:48:39.069Z,99.90
2018-12-05T23:51:11.401Z,99.90
2018-12-05T23:53:43.666Z,99.90
2018-12-05T23:56:15.726Z,99.90
2018-12-05T23:58:48.119Z,99.90
